createdAt,value
2022-10-21T00:00:27.613Z,92.76
2022-10-21T00:05:53.742Z,92.37
2022-10-21T00:11:03.752Z,93.10
2022-10-21T00:16:17.442Z,93.05
2022-10-21T00:21:32.229Z,93.07
2022-10-21T00:26:46.685Z,93.47
2022-10-21T00:31:54.772Z,93.44
2022-10-21T00:36:58.449Z,93.97
2022-10-21T00:42:01.970Z,93.95
2022-10-21T00:47:08.398Z,94.16
2022-10-21T00:52:20.872Z,94.48
2022-10-21T00:57:25.870Z,94.88
2022-10-21T01:02:29.626Z,94.99
2022-10-21T01:07:36.359Z,95.23
2022-10-21T01:13:03.860Z,95.53
2022-10-21T01:18:12.761Z,95.85
2022-10-21T01:23:28.237Z,95.84
2022-10-21T01:28:34.551Z,95.72
2022-10-21T01:34:04.094Z,95.71
2022-10-21T01:39:31.375Z,95.88
2022-10-21T01:44:40.395Z,95.91
2022-10-21T01:49:58.214Z,96.14
2022-10-21T01:55:06.505Z,96.35
2022-10-21T02:00:10.846Z,96.05
2022-10-21T02:05:20.015Z,96.05
2022-10-21T02:10:26.880Z,96.19
2022-10-21T02:15:30.839Z,96.17
2022-10-21T02:20:40.598Z,96.22
2022-10-21T02:25:46.379Z,96.37
2022-10-21T02:31:21.757Z,96.43
2022-10-21T02:36:28.122Z,96.70
2022-10-21T02:41:32.574Z,96.75
2022-10-21T02:46:40.988Z,96.67
2022-10-21T02:51:45.265Z,97.00
2022-10-21T02:56:48.803Z,96.87
2022-10-21T03:01:52.252Z,97.05
2022-10-21T03:06:55.399Z,97.26
2022-10-21T03:11:58.722Z,97.54
2022-10-21T03:17:01.987Z,97.40
2022-10-21T03:22:05.274Z,97.35
2022-10-21T03:27:08.572Z,97.63
2022-10-21T03:32:12.073Z,97.63
2022-10-21T03:37:15.521Z,97.76
2022-10-21T03:42:18.806Z,97.78
2022-10-21T03:47:22.191Z,97.68
2022-10-21T03:52:25.580Z,97.65
2022-10-21T03:57:28.848Z,97.76
2022-10-21T04:02:32.103Z,97.86
2022-10-21T04:07:35.320Z,98.10
2022-10-21T04:12:38.993Z,98.49
2022-10-21T04:17:42.571Z,98.72
2022-10-21T04:22:45.754Z,98.85
2022-10-21T04:27:49.035Z,98.89
2022-10-21T04:32:52.345Z,98.74
2022-10-21T04:37:55.543Z,98.90
2022-10-21T04:42:58.811Z,99.19
2022-10-21T04:48:02.123Z,99.25
2022-10-21T04:53:05.458Z,99.48
2022-10-21T04:58:08.709Z,99.56
2022-10-21T05:03:12.050Z,99.78
2022-10-21T05:08:15.338Z,99.88
2022-10-21T05:13:18.732Z,99.85
2022-10-21T05:18:22.149Z,99.78
2022-10-21T05:23:26.327Z,99.94
2022-10-21T05:28:32.717Z,99.96
2022-10-21T05:33:39.422Z,99.63
2022-10-21T05:38:48.557Z,99.41
2022-10-21T05:43:55.083Z,99.42
2022-10-21T05:48:58.561Z,99.11
2022-10-21T05:54:04.089Z,98.83
2022-10-21T05:59:10.086Z,98.66
2022-10-21T06:04:13.749Z,98.64
2022-10-21T06:09:17.891Z,98.70
2022-10-21T06:14:21.627Z,98.24
2022-10-21T06:19:24.894Z,97.84
2022-10-21T06:24:28.354Z,98.05
2022-10-21T06:29:36.406Z,97.91
2022-10-21T06:34:40.428Z,97.82
2022-10-21T06:39:43.922Z,97.83
2022-10-21T06:44:47.200Z,97.77
2022-10-21T06:49:50.478Z,97.95
2022-10-21T06:54:53.803Z,97.80
2022-10-21T06:59:59.556Z,97.68
2022-10-21T07:05:02.980Z,97.72
2022-10-21T07:10:06.474Z,97.58
2022-10-21T07:15:10.406Z,97.42
2022-10-21T07:20:16.291Z,97.24
2022-10-21T07:25:20.186Z,96.89
2022-10-21T07:30:23.990Z,96.69
2022-10-21T07:35:27.250Z,96.42
2022-10-21T07:40:30.737Z,96.38
2022-10-21T07:45:35.068Z,96.35
2022-10-21T07:50:38.290Z,95.83
2022-10-21T07:55:41.657Z,95.85
2022-10-21T08:00:45.513Z,95.51
2022-10-21T08:05:49.049Z,95.25
2022-10-21T08:10:53.703Z,94.94
2022-10-21T08:15:57.155Z,94.78
2022-10-21T08:21:03.565Z,94.15
2022-10-21T08:26:17.375Z,94.00
2022-10-21T08:31:22.368Z,93.91
2022-10-21T08:36:26.782Z,93.25
2022-10-21T08:41:30.091Z,92.86
2022-10-21T08:47:20.018Z,92.63
2022-10-21T08:52:50.402Z,92.74
2022-10-21T08:57:57.828Z,91.48
2022-10-21T09:03:32.507Z,91.13
2022-10-21T09:08:43.456Z,90.56
2022-10-21T09:14:44.073Z,90.76
2022-10-21T09:19:49.665Z,90.40
2022-10-21T09:24:59.234Z,90.55
2022-10-21T09:30:18.903Z,89.77
2022-10-21T09:35:31.202Z,89.53
2022-10-21T09:40:34.670Z,89.66
2022-10-21T09:45:43.924Z,89.84
2022-10-21T09:50:50.794Z,89.82
2022-10-21T09:56:20.881Z,89.34
2022-10-21T10:01:24.361Z,88.51
2022-10-21T10:06:35.866Z,88.49
2022-10-21T10:11:56.369Z,88.29
2022-10-21T10:17:27.792Z,87.85
2022-10-21T10:22:41.383Z,87.24
2022-10-21T10:28:00.404Z,86.17
2022-10-21T10:33:16.210Z,85.65
2022-10-21T10:38:38.659Z,84.55
2022-10-21T10:43:56.993Z,84.03
2022-10-21T10:49:19.796Z,83.68
2022-10-21T10:54:28.550Z,83.86
2022-10-21T10:59:47.806Z,83.09
2022-10-21T11:05:26.145Z,82.64
2022-10-21T11:10:32.447Z,82.16
2022-10-21T11:15:41.962Z,81.00
2022-10-21T11:21:14.305Z,80.60
2022-10-21T11:26:34.942Z,79.53
2022-10-21T11:32:06.645Z,79.80
2022-10-21T11:37:23.083Z,79.45
2022-10-21T11:42:37.824Z,79.22
2022-10-21T11:48:06.726Z,78.58
2022-10-21T11:53:32.256Z,78.38
2022-10-21T11:59:01.928Z,78.09
2022-10-21T12:04:36.728Z,77.87
2022-10-21T12:10:21.026Z,78.11
2022-10-21T12:15:47.422Z,77.30
2022-10-21T12:20:54.463Z,77.50
2022-10-21T12:26:24.800Z,77.25
2022-10-21T12:31:58.270Z,76.39
2022-10-21T12:37:04.385Z,76.30
2022-10-21T12:42:20.384Z,75.87
2022-10-21T12:47:43.992Z,75.76
2022-10-21T12:53:09.252Z,75.77
2022-10-21T12:58:32.005Z,75.54
2022-10-21T13:03:45.930Z,75.78
2022-10-21T13:08:54.695Z,75.21
2022-10-21T13:14:23.096Z,74.69
2022-10-21T13:19:34.490Z,74.59
2022-10-21T13:24:40.459Z,74.61
2022-10-21T13:29:49.040Z,74.70
2022-10-21T13:35:20.783Z,74.80
2022-10-21T13:41:07.530Z,74.93
2022-10-21T13:46:17.837Z,75.05
2022-10-21T13:51:30.337Z,75.19
2022-10-21T13:56:36.012Z,75.11
2022-10-21T14:01:51.455Z,75.18
2022-10-21T14:07:01.559Z,75.22
2022-10-21T14:12:10.357Z,75.71
2022-10-21T14:17:27.226Z,75.77
2022-10-21T14:22:33.515Z,75.89
2022-10-21T14:27:37.270Z,75.87
2022-10-21T14:32:41.558Z,76.24
2022-10-21T14:37:48.833Z,76.41
2022-10-21T14:42:54.319Z,76.55
2022-10-21T14:48:27.451Z,76.90
2022-10-21T14:53:51.284Z,77.27
2022-10-21T14:59:26.118Z,77.82
2022-10-21T15:04:51.850Z,78.03
2022-10-21T15:10:30.547Z,78.24
2022-10-21T15:15:54.549Z,78.53
2022-10-21T15:21:01.839Z,78.82
2022-10-21T15:26:42.753Z,79.12
2022-10-21T15:31:55.452Z,79.55
2022-10-21T15:37:15.622Z,79.90
2022-10-21T15:42:38.356Z,80.49
2022-10-21T15:47:56.064Z,81.25
2022-10-21T15:53:29.450Z,81.86
2022-10-21T15:58:54.091Z,82.53
2022-10-21T16:04:32.298Z,83.03
2022-10-21T16:09:51.164Z,84.09
2022-10-21T16:15:20.517Z,85.00
2022-10-21T16:20:29.680Z,85.69
2022-10-21T16:25:46.589Z,86.23
2022-10-21T16:31:06.774Z,86.60
2022-10-21T16:36:31.502Z,87.07
2022-10-21T16:41:49.479Z,87.63
2022-10-21T16:46:59.725Z,88.05
2022-10-21T16:52:07.582Z,88.46
2022-10-21T16:57:17.777Z,88.75
2022-10-21T17:02:21.575Z,89.07
2022-10-21T17:07:40.718Z,89.37
2022-10-21T17:12:48.170Z,89.67
2022-10-21T17:17:57.511Z,90.05
2022-10-21T17:23:02.536Z,90.49
2022-10-21T17:28:09.862Z,90.86
2022-10-21T17:33:17.376Z,91.23
2022-10-21T17:38:22.521Z,91.63
2022-10-21T17:43:27.451Z,92.06
2022-10-21T17:48:40.469Z,92.25
2022-10-21T17:54:01.454Z,92.50
2022-10-21T17:59:38.065Z,92.90
2022-10-21T18:05:04.605Z,93.16
2022-10-21T18:10:20.544Z,93.57
2022-10-21T18:15:38.394Z,93.80
2022-10-21T18:20:59.630Z,94.21
2022-10-21T18:27:05.863Z,94.49
2022-10-21T18:32:52.416Z,94.91
2022-10-21T18:38:08.332Z,95.14
2022-10-21T18:43:31.610Z,95.57
2022-10-21T18:48:59.768Z,95.82
2022-10-21T18:54:47.218Z,96.07
2022-10-21T19:00:13.773Z,96.24
2022-10-21T19:05:33.949Z,96.56
2022-10-21T19:11:32.215Z,96.89
2022-10-21T19:16:48.249Z,97.09
2022-10-21T19:22:01.643Z,97.23
2022-10-21T19:27:09.794Z,97.45
2022-10-21T19:32:21.954Z,97.85
2022-10-21T19:37:32.115Z,98.05
2022-10-21T19:42:43.442Z,98.35
2022-10-21T19:47:57.213Z,98.48
2022-10-21T19:53:05.576Z,98.71
2022-10-21T19:58:12.332Z,98.88
2022-10-21T20:03:17.650Z,99.16
2022-10-21T20:08:34.976Z,99.23
2022-10-21T20:13:53.701Z,99.73
2022-10-21T20:19:08.348Z,99.87
2022-10-21T20:24:24.773Z,100.00
2022-10-21T20:29:38.518Z,100.00
2022-10-21T20:34:52.161Z,100.00
2022-10-21T20:40:06.935Z,100.00
2022-10-21T20:45:10.994Z,100.00
2022-10-21T20:50:34.756Z,100.00
2022-10-21T20:55:38.768Z,100.00
2022-10-21T21:00:47.263Z,100.00
2022-10-21T21:06:02.655Z,100.00
2022-10-21T21:11:13.307Z,100.00
2022-10-21T21:16:19.819Z,100.00
2022-10-21T21:21:27.269Z,100.00
2022-10-21T21:26:37.652Z,100.00
2022-10-21T21:31:41.743Z,100.00
2022-10-21T21:36:46.247Z,100.00
2022-10-21T21:41:51.981Z,100.00
2022-10-21T21:46:59.030Z,100.00
2022-10-21T21:52:12.718Z,100.00
2022-10-21T21:57:34.357Z,100.00
2022-10-21T22:02:37.703Z,100.00
2022-10-21T22:07:41.228Z,100.00
2022-10-21T22:12:47.720Z,100.00
2022-10-21T22:17:52.103Z,100.00
2022-10-21T22:22:55.742Z,100.00
2022-10-21T22:27:59.082Z,100.00
2022-10-21T22:33:02.362Z,100.00
2022-10-21T22:38:06.102Z,100.00
2022-10-21T22:43:09.281Z,100.00
2022-10-21T22:48:12.541Z,100.00
2022-10-21T22:53:16.247Z,100.00
2022-10-21T22:58:21.567Z,100.00
2022-10-21T23:03:24.819Z,100.00
2022-10-21T23:08:28.216Z,100.00
2022-10-21T23:13:31.471Z,100.00
2022-10-21T23:18:34.721Z,100.00
2022-10-21T23:23:38.590Z,100.00
2022-10-21T23:28:43.034Z,100.00
2022-10-21T23:33:49.326Z,100.00
2022-10-21T23:38:55.767Z,100.00
2022-10-21T23:43:59.167Z,100.00
2022-10-21T23:49:02.295Z,100.00
2022-10-21T23:54:05.638Z,100.00
2022-10-21T23:59:08.866Z,100.00
